sensor_id;sensor_type;location;lat;lon;timestamp;pressure;altitude;pressure_sealevel;temperature;humidity
19600;BME280;9947;57.722;12.012;2023-11-21T00:01:08;101630.66;;;0.17;100.00
19600;BME280;9947;57.722;12.012;2023-11-21T00:03:34;101627.88;;;0.21;100.00
19600;BME280;9947;57.722;12.012;2023-11-21T00:06:01;101623.44;;;0.22;100.00
19600;BME280;9947;57.722;12.012;2023-11-21T00:08:31;101627.75;;;0.29;100.00
19600;BME280;9947;57.722;12.012;2023-11-21T00:10:58;101635.63;;;0.34;100.00
19600;BME280;9947;57.722;12.012;2023-11-21T00:13:27;101641.72;;;0.39;100.00
19600;BME280;9947;57.722;12.012;2023-11-21T00:15:54;101635.47;;;0.41;100.00
19600;BME280;9947;57.722;12.012;2023-11-21T00:18:21;101643.41;;;0.43;100.00
19600;BME280;9947;57.722;12.012;2023-11-21T00:20:47;101639.06;;;0.39;100.00
19600;BME280;9947;57.722;12.012;2023-11-21T00:23:17;101641.69;;;0.40;100.00
19600;BME280;9947;57.722;12.012;2023-11-21T00:25:46;101644.31;;;0.42;100.00
19600;BME280;9947;57.722;12.012;2023-11-21T00:28:14;101645.94;;;0.49;100.00
19600;BME280;9947;57.722;12.012;2023-11-21T00:30:41;101642.41;;;0.48;100.00
19600;BME280;9947;57.722;12.012;2023-11-21T00:33:08;101645.03;;;0.50;100.00
19600;BME280;9947;57.722;12.012;2023-11-21T00:35:38;101651.28;;;0.47;100.00
19600;BME280;9947;57.722;12.012;2023-11-21T00:38:07;101654.78;;;0.52;100.00
19600;BME280;9947;57.722;12.012;2023-11-21T00:40:36;101650.31;;;0.53;100.00
19600;BME280;9947;57.722;12.012;2023-11-21T00:43:04;101653.84;;;0.52;100.00
19600;BME280;9947;57.722;12.012;2023-11-21T00:45:33;101654.81;;;0.49;100.00
19600;BME280;9947;57.722;12.012;2023-11-21T00:48:02;101664.47;;;0.55;100.00
19600;BME280;9947;57.722;12.012;2023-11-21T00:50:31;101670.69;;;0.54;100.00
19600;BME280;9947;57.722;12.012;2023-11-21T00:52:59;101673.28;;;0.57;100.00
19600;BME280;9947;57.722;12.012;2023-11-21T00:55:28;101676.78;;;0.59;100.00
19600;BME280;9947;57.722;12.012;2023-11-21T00:57:57;101679.44;;;0.59;100.00
19600;BME280;9947;57.722;12.012;2023-11-21T01:00:26;101677.78;;;0.55;100.00
19600;BME280;9947;57.722;12.012;2023-11-21T01:02:54;101684.84;;;0.56;100.00
19600;BME280;9947;57.722;12.012;2023-11-21T01:05:22;101685.69;;;0.58;100.00
19600;BME280;9947;57.722;12.012;2023-11-21T01:07:57;101676.84;;;0.56;100.00
19600;BME280;9947;57.722;12.012;2023-11-21T01:10:27;101675.88;;;0.60;100.00
19600;BME280;9947;57.722;12.012;2023-11-21T01:12:55;101683.88;;;0.60;100.00
19600;BME280;9947;57.722;12.012;2023-11-21T01:15:23;101683.91;;;0.58;100.00
19600;BME280;9947;57.722;12.012;2023-11-21T01:17:52;101684.84;;;0.56;100.00
19600;BME280;9947;57.722;12.012;2023-11-21T01:20:19;101691.94;;;0.55;100.00
19600;BME280;9947;57.722;12.012;2023-11-21T01:22:47;101698.09;;;0.57;100.00
19600;BME280;9947;57.722;12.012;2023-11-21T01:25:15;101705.22;;;0.57;100.00
19600;BME280;9947;57.722;12.012;2023-11-21T01:27:41;101704.31;;;0.58;100.00
19600;BME280;9947;57.722;12.012;2023-11-21T01:30:10;101707.00;;;0.56;100.00
19600;BME280;9947;57.722;12.012;2023-11-21T01:32:37;101714.06;;;0.57;100.00
19600;BME280;9947;57.722;12.012;2023-11-21T01:35:07;101712.34;;;0.55;100.00
19600;BME280;9947;57.722;12.012;2023-11-21T01:37:35;101716.84;;;0.51;100.00
19600;BME280;9947;57.722;12.012;2023-11-21T01:40:03;101722.19;;;0.50;100.00
19600;BME280;9947;57.722;12.012;2023-11-21T01:42:35;101723.00;;;0.55;100.00
19600;BME280;9947;57.722;12.012;2023-11-21T01:45:03;101725.75;;;0.49;100.00
19600;BME280;9947;57.722;12.012;2023-11-21T01:47:33;101734.56;;;0.51;100.00
19600;BME280;9947;57.722;12.012;2023-11-21T01:50:02;101737.34;;;0.46;100.00
19600;BME280;9947;57.722;12.012;2023-11-21T01:52:34;101739.91;;;0.51;100.00
19600;BME280;9947;57.722;12.012;2023-11-21T01:55:03;101749.78;;;0.44;100.00
19600;BME280;9947;57.722;12.012;2023-11-21T01:57:33;101748.13;;;0.39;100.00
19600;BME280;9947;57.722;12.012;2023-11-21T02:00:02;101754.22;;;0.44;100.00
19600;BME280;9947;57.722;12.012;2023-11-21T02:02:42;101763.09;;;0.44;100.00
19600;BME280;9947;57.722;12.012;2023-11-21T02:05:10;101763.84;;;0.51;100.00
19600;BME280;9947;57.722;12.012;2023-11-21T02:07:41;101772.69;;;0.51;100.00
19600;BME280;9947;57.722;12.012;2023-11-21T02:10:08;101774.50;;;0.49;100.00
19600;BME280;9947;57.722;12.012;2023-11-21T02:12:37;101775.31;;;0.56;100.00
19600;BME280;9947;57.722;12.012;2023-11-21T02:15:07;101779.75;;;0.55;100.00
19600;BME280;9947;57.722;12.012;2023-11-21T02:17:42;101785.94;;;0.56;100.00
19600;BME280;9947;57.722;12.012;2023-11-21T02:20:10;101785.91;;;0.57;100.00
19600;BME280;9947;57.722;12.012;2023-11-21T02:22:43;101789.41;;;0.59;100.00
19600;BME280;9947;57.722;12.012;2023-11-21T02:25:11;101791.94;;;0.67;100.00
19600;BME280;9947;57.722;12.012;2023-11-21T02:27:40;101792.13;;;0.58;100.00
19600;BME280;9947;57.722;12.012;2023-11-21T02:30:14;101801.78;;;0.62;100.00
19600;BME280;9947;57.722;12.012;2023-11-21T02:32:41;101801.66;;;0.68;100.00
19600;BME280;9947;57.722;12.012;2023-11-21T02:35:09;101810.41;;;0.75;100.00
19600;BME280;9947;57.722;12.012;2023-11-21T02:37:37;101812.16;;;0.76;100.00
19600;BME280;9947;57.722;12.012;2023-11-21T02:40:06;101805.09;;;0.73;100.00
19600;BME280;9947;57.722;12.012;2023-11-21T02:42:38;101805.94;;;0.78;100.00
19600;BME280;9947;57.722;12.012;2023-11-21T02:45:06;101812.91;;;0.84;100.00
19600;BME280;9947;57.722;12.012;2023-11-21T02:47:34;101798.59;;;0.89;100.00
19600;BME280;9947;57.722;12.012;2023-11-21T02:50:02;101803.84;;;0.92;100.00
19600;BME280;9947;57.722;12.012;2023-11-21T02:52:30;101799.38;;;0.95;100.00
19600;BME280;9947;57.722;12.012;2023-11-21T02:54:58;101801.06;;;0.99;100.00
19600;BME280;9947;57.722;12.012;2023-11-21T02:57:26;101798.53;;;0.92;100.00
19600;BME280;9947;57.722;12.012;2023-11-21T03:00:02;101799.38;;;0.95;100.00
19600;BME280;9947;57.722;12.012;2023-11-21T03:02:33;101802.94;;;0.93;100.00
19600;BME280;9947;57.722;12.012;2023-11-21T03:05:02;101806.44;;;0.96;100.00
19600;BME280;9947;57.722;12.012;2023-11-21T03:07:31;101797.72;;;0.89;100.00
19600;BME280;9947;57.722;12.012;2023-11-21T03:09:58;101803.84;;;0.92;100.00
19600;BME280;9947;57.722;12.012;2023-11-21T03:12:26;101806.38;;;0.99;100.00
19600;BME280;9947;57.722;12.012;2023-11-21T03:14:54;101808.13;;;1.00;100.00
19600;BME280;9947;57.722;12.012;2023-11-21T03:17:23;101799.25;;;1.01;100.00
19600;BME280;9947;57.722;12.012;2023-11-21T03:19:50;101802.81;;;1.00;100.00
19600;BME280;9947;57.722;12.012;2023-11-21T03:22:17;101800.09;;;1.04;100.00
19600;BME280;9947;57.722;12.012;2023-11-21T03:24:47;101805.41;;;1.03;100.00
19600;BME280;9947;57.722;12.012;2023-11-21T03:27:15;101806.28;;;1.05;100.00
19600;BME280;9947;57.722;12.012;2023-11-21T03:29:42;101800.06;;;1.06;100.00
19600;BME280;9947;57.722;12.012;2023-11-21T03:32:16;101802.75;;;1.03;100.00
19600;BME280;9947;57.722;12.012;2023-11-21T03:34:53;101806.44;;;0.96;100.00
19600;BME280;9947;57.722;12.012;2023-11-21T03:37:22;101814.38;;;0.99;100.00
19600;BME280;9947;57.722;12.012;2023-11-21T03:39:50;101813.50;;;0.98;100.00
19600;BME280;9947;57.722;12.012;2023-11-21T03:42:17;101812.63;;;0.98;100.00
19600;BME280;9947;57.722;12.012;2023-11-21T03:44:44;101816.13;;;1.00;100.00
19600;BME280;9947;57.722;12.012;2023-11-21T03:47:11;101826.72;;;1.03;100.00
19600;BME280;9947;57.722;12.012;2023-11-21T03:49:42;101821.47;;;0.98;100.00
19600;BME280;9947;57.722;12.012;2023-11-21T03:52:09;101824.28;;;0.92;100.00
19600;BME280;9947;57.722;12.012;2023-11-21T03:54:36;101828.63;;;0.96;100.00
19600;BME280;9947;57.722;12.012;2023-11-21T03:57:03;101838.47;;;0.92;100.00
19600;BME280;9947;57.722;12.012;2023-11-21T03:59:31;101845.53;;;0.93;100.00
19600;BME280;9947;57.722;12.012;2023-11-21T04:01:58;101859.72;;;0.94;100.00
19600;BME280;9947;57.722;12.012;2023-11-21T04:04:25;101852.50;;;1.01;100.00
19600;BME280;9947;57.722;12.012;2023-11-21T04:06:54;101853.38;;;1.01;100.00
19600;BME280;9947;57.722;12.012;2023-11-21T04:09:21;101856.09;;;0.98;100.00
19600;BME280;9947;57.722;12.012;2023-11-21T04:11:51;101862.31;;;0.97;100.00
19600;BME280;9947;57.722;12.012;2023-11-21T04:16:43;101856.03;;;1.01;100.00
19600;BME280;9947;57.722;12.012;2023-11-21T04:19:11;101857.06;;;0.94;100.00
19600;BME280;9947;57.722;12.012;2023-11-21T04:21:41;101849.09;;;0.92;100.00
19600;BME280;9947;57.722;12.012;2023-11-21T04:24:10;101847.34;;;0.91;100.00
19600;BME280;9947;57.722;12.012;2023-11-21T04:26:38;101851.06;;;0.84;100.00
19600;BME280;9947;57.722;12.012;2023-11-21T04:29:06;101855.47;;;0.85;100.00
19600;BME280;9947;57.722;12.012;2023-11-21T04:31:33;101856.47;;;0.80;100.00
19600;BME280;9947;57.722;12.012;2023-11-21T04:34:00;101867.16;;;0.75;100.00
19600;BME280;9947;57.722;12.012;2023-11-21T04:36:28;101874.44;;;0.67;100.00
19600;BME280;9947;57.722;12.012;2023-11-21T04:38:57;101884.09;;;0.71;100.00
19600;BME280;9947;57.722;12.012;2023-11-21T04:43:52;101878.97;;;0.62;100.00
19600;BME280;9947;57.722;12.012;2023-11-21T04:48:44;101897.59;;;0.62;100.00
19600;BME280;9947;57.722;12.012;2023-11-21T04:51:12;101907.41;;;0.58;100.00
19600;BME280;9947;57.722;12.012;2023-11-21T04:53:39;101901.13;;;0.63;100.00
19600;BME280;9947;57.722;12.012;2023-11-21T04:56:06;101900.31;;;0.57;100.00
19600;BME280;9947;57.722;12.012;2023-11-21T04:58:34;101919.06;;;0.50;100.00
19600;BME280;9947;57.722;12.012;2023-11-21T05:01:07;101925.22;;;0.52;100.00
19600;BME280;9947;57.722;12.012;2023-11-21T05:03:34;101930.59;;;0.49;100.00
19600;BME280;9947;57.722;12.012;2023-11-21T05:06:01;101935.94;;;0.47;100.00
19600;BME280;9947;57.722;12.012;2023-11-21T05:08:30;101940.38;;;0.48;100.00
19600;BME280;9947;57.722;12.012;2023-11-21T05:10:57;101940.41;;;0.45;100.00
19600;BME280;9947;57.722;12.012;2023-11-21T05:15:49;101949.19;;;0.50;100.00
19600;BME280;9947;57.722;12.012;2023-11-21T05:20:46;101952.81;;;0.46;100.00
19600;BME280;9947;57.722;12.012;2023-11-21T05:23:15;101957.28;;;0.44;100.00
19600;BME280;9947;57.722;12.012;2023-11-21T05:25:42;101959.06;;;0.44;100.00
19600;BME280;9947;57.722;12.012;2023-11-21T05:28:10;101958.22;;;0.42;100.00
19600;BME280;9947;57.722;12.012;2023-11-21T05:30:40;101956.50;;;0.38;100.00
19600;BME280;9947;57.722;12.012;2023-11-21T05:33:07;101961.81;;;0.38;100.00
19600;BME280;9947;57.722;12.012;2023-11-21T05:35:35;101964.47;;;0.39;100.00
19600;BME280;9947;57.722;12.012;2023-11-21T05:38:04;101970.75;;;0.34;100.00
19600;BME280;9947;57.722;12.012;2023-11-21T05:40:32;101975.19;;;0.33;100.00
19600;BME280;9947;57.722;12.012;2023-11-21T05:43:01;101986.72;;;0.34;100.00
19600;BME280;9947;57.722;12.012;2023-11-21T05:45:29;101986.63;;;0.40;100.00
19600;BME280;9947;57.722;12.012;2023-11-21T05:47:57;101971.63;;;0.36;100.00
19600;BME280;9947;57.722;12.012;2023-11-21T05:50:25;101971.56;;;0.39;100.00
19600;BME280;9947;57.722;12.012;2023-11-21T05:52:55;101971.50;;;0.42;100.00
19600;BME280;9947;57.722;12.012;2023-11-21T05:57:49;101972.28;;;0.48;100.00
19600;BME280;9947;57.722;12.012;2023-11-21T06:02:42;101967.09;;;0.41;100.00
19600;BME280;9947;57.722;12.012;2023-11-21T06:05:10;101960.91;;;0.40;100.00
19600;BME280;9947;57.722;12.012;2023-11-21T06:07:39;101977.66;;;0.45;100.00
19600;BME280;9947;57.722;12.012;2023-11-21T06:10:07;101979.41;;;0.46;100.00
19600;BME280;9947;57.722;12.012;2023-11-21T06:12:36;101981.13;;;0.50;100.00
19600;BME280;9947;57.722;12.012;2023-11-21T06:15:05;101981.19;;;0.46;100.00
19600;BME280;9947;57.722;12.012;2023-11-21T06:17:40;101989.09;;;0.50;100.00
19600;BME280;9947;57.722;12.012;2023-11-21T06:20:10;101982.16;;;0.42;100.00
19600;BME280;9947;57.722;12.012;2023-11-21T06:22:42;101988.22;;;0.50;100.00
19600;BME280;9947;57.722;12.012;2023-11-21T06:25:13;101979.34;;;0.51;100.00
19600;BME280;9947;57.722;12.012;2023-11-21T06:27:41;101980.22;;;0.53;100.00
19600;BME280;9947;57.722;12.012;2023-11-21T06:30:12;101982.88;;;0.54;100.00
19600;BME280;9947;57.722;12.012;2023-11-21T06:32:41;101985.47;;;0.57;100.00
19600;BME280;9947;57.722;12.012;2023-11-21T06:35:12;101992.47;;;0.63;100.00
19600;BME280;9947;57.722;12.012;2023-11-21T06:37:40;101982.63;;;0.68;100.00
19600;BME280;9947;57.722;12.012;2023-11-21T06:40:12;101970.28;;;0.64;100.00
19600;BME280;9947;57.722;12.012;2023-11-21T06:42:40;101984.53;;;0.60;100.00
19600;BME280;9947;57.722;12.012;2023-11-21T06:45:11;101990.66;;;0.65;100.00
19600;BME280;9947;57.722;12.012;2023-11-21T06:47:41;101986.31;;;0.61;100.00
19600;BME280;9947;57.722;12.012;2023-11-21T06:50:09;101997.78;;;0.65;100.00
19600;BME280;9947;57.722;12.012;2023-11-21T06:52:38;101997.63;;;0.72;100.00
19600;BME280;9947;57.722;12.012;2023-11-21T06:55:09;101986.97;;;0.74;100.00
19600;BME280;9947;57.722;12.012;2023-11-21T06:57:36;101978.97;;;0.75;100.00
19600;BME280;9947;57.722;12.012;2023-11-21T07:00:05;101976.28;;;0.75;100.00
19600;BME280;9947;57.722;12.012;2023-11-21T07:02:36;101977.19;;;0.76;100.00
19600;BME280;9947;57.722;12.012;2023-11-21T07:05:04;101986.03;;;0.76;100.00
19600;BME280;9947;57.722;12.012;2023-11-21T07:07:37;101981.66;;;0.74;100.00
19600;BME280;9947;57.722;12.012;2023-11-21T07:10:04;101993.09;;;0.80;100.00
19600;BME280;9947;57.722;12.012;2023-11-21T07:12:32;101989.66;;;0.72;100.00
19600;BME280;9947;57.722;12.012;2023-11-21T07:15:03;101990.44;;;0.77;100.00
19600;BME280;9947;57.722;12.012;2023-11-21T07:17:31;101988.63;;;0.82;100.00
19600;BME280;9947;57.722;12.012;2023-11-21T07:20:02;101999.25;;;0.84;100.00
19600;BME280;9947;57.722;12.012;2023-11-21T07:22:30;101996.56;;;0.85;100.00
19600;BME280;9947;57.722;12.012;2023-11-21T07:24:57;102002.75;;;0.86;100.00
19600;BME280;9947;57.722;12.012;2023-11-21T07:27:25;102005.50;;;0.81;100.00
19600;BME280;9947;57.722;12.012;2023-11-21T07:29:54;102009.13;;;0.76;100.00
19600;BME280;9947;57.722;12.012;2023-11-21T07:34:49;102029.47;;;0.80;100.00
19600;BME280;9947;57.722;12.012;2023-11-21T07:39:43;102034.69;;;0.86;100.00
19600;BME280;9947;57.722;12.012;2023-11-21T07:42:12;102032.00;;;0.89;100.00
19600;BME280;9947;57.722;12.012;2023-11-21T07:44:39;102032.94;;;0.85;100.00
19600;BME280;9947;57.722;12.012;2023-11-21T07:47:05;102035.59;;;0.86;100.00
19600;BME280;9947;57.722;12.012;2023-11-21T07:49:32;102044.31;;;0.95;100.00
19600;BME280;9947;57.722;12.012;2023-11-21T07:51:59;102037.19;;;0.97;100.00
19600;BME280;9947;57.722;12.012;2023-11-21T07:54:27;102044.25;;;0.98;100.00
19600;BME280;9947;57.722;12.012;2023-11-21T07:56:58;102047.72;;;1.03;100.00
19600;BME280;9947;57.722;12.012;2023-11-21T07:59:25;102043.28;;;1.05;100.00
19600;BME280;9947;57.722;12.012;2023-11-21T08:01:52;102046.00;;;0.99;100.00
19600;BME280;9947;57.722;12.012;2023-11-21T08:06:44;102051.28;;;1.05;100.00
19600;BME280;9947;57.722;12.012;2023-11-21T08:09:11;102045.94;;;1.05;100.00
19600;BME280;9947;57.722;12.012;2023-11-21T08:11:38;102044.25;;;0.98;100.00
19600;BME280;9947;57.722;12.012;2023-11-21T08:14:08;102051.28;;;1.02;100.00
19600;BME280;9947;57.722;12.012;2023-11-21T08:16:35;102052.13;;;1.04;100.00
19600;BME280;9947;57.722;12.012;2023-11-21T08:19:02;102049.47;;;1.07;100.00
19600;BME280;9947;57.722;12.012;2023-11-21T08:23:57;102055.59;;;1.10;100.00
19600;BME280;9947;57.722;12.012;2023-11-21T08:28:49;102055.69;;;1.06;100.00
19600;BME280;9947;57.722;12.012;2023-11-21T08:31:23;102060.06;;;1.10;100.00
19600;BME280;9947;57.722;12.012;2023-11-21T08:33:50;102057.34;;;1.13;100.00
19600;BME280;9947;57.722;12.012;2023-11-21T08:38:46;102059.19;;;1.08;100.00
19600;BME280;9947;57.722;12.012;2023-11-21T08:41:18;102067.13;;;1.11;100.00
19600;BME280;9947;57.722;12.012;2023-11-21T08:43:49;102069.91;;;1.03;100.00
19600;BME280;9947;57.722;12.012;2023-11-21T08:48:46;102076.97;;;1.07;100.00
19600;BME280;9947;57.722;12.012;2023-11-21T08:53:43;102089.44;;;1.05;100.00
19600;BME280;9947;57.722;12.012;2023-11-21T08:56:13;102100.97;;;1.04;100.00
19600;BME280;9947;57.722;12.012;2023-11-21T08:58:43;102111.59;;;1.07;100.00
19600;BME280;9947;57.722;12.012;2023-11-21T09:01:12;102110.78;;;1.01;100.00
19600;BME280;9947;57.722;12.012;2023-11-21T09:03:40;102111.63;;;1.03;100.00
19600;BME280;9947;57.722;12.012;2023-11-21T09:06:11;102117.84;;;1.05;100.00
19600;BME280;9947;57.722;12.012;2023-11-21T09:08:41;102130.28;;;1.01;100.00
19600;BME280;9947;57.722;12.012;2023-11-21T09:11:08;102112.50;;;1.03;100.00
19600;BME280;9947;57.722;12.012;2023-11-21T09:13:39;102116.88;;;1.09;100.00
19600;BME280;9947;57.722;12.012;2023-11-21T09:16:07;102118.78;;;0.99;100.00
19600;BME280;9947;57.722;12.012;2023-11-21T09:18:34;102127.50;;;1.12;100.00
19600;BME280;9947;57.722;12.012;2023-11-21T09:21:03;102137.38;;;1.05;100.00
19600;BME280;9947;57.722;12.012;2023-11-21T09:23:35;102122.25;;;1.07;100.00
19600;BME280;9947;57.722;12.012;2023-11-21T09:26:03;102123.19;;;1.02;100.00
19600;BME280;9947;57.722;12.012;2023-11-21T09:28:31;102115.19;;;1.05;100.00
19600;BME280;9947;57.722;12.012;2023-11-21T09:30:58;102124.81;;;1.12;100.00
19600;BME280;9947;57.722;12.012;2023-11-21T09:33:26;102122.16;;;1.12;100.00
19600;BME280;9947;57.722;12.012;2023-11-21T09:35:59;102115.94;;;1.13;100.00
19600;BME280;9947;57.722;12.012;2023-11-21T09:40:53;102115.03;;;1.14;100.00
19600;BME280;9947;57.722;12.012;2023-11-21T09:45:59;102114.88;;;1.23;100.00
19600;BME280;9947;57.722;12.012;2023-11-21T09:50:53;102114.81;;;1.26;100.00
19600;BME280;9947;57.722;12.012;2023-11-21T09:53:22;102114.88;;;1.23;100.00
19600;BME280;9947;57.722;12.012;2023-11-21T09:55:53;102115.78;;;1.20;100.00
19600;BME280;9947;57.722;12.012;2023-11-21T09:58:27;102123.94;;;1.11;100.00
19600;BME280;9947;57.722;12.012;2023-11-21T10:00:58;102128.38;;;1.11;100.00
19600;BME280;9947;57.722;12.012;2023-11-21T10:03:30;102134.53;;;1.16;100.00
19600;BME280;9947;57.722;12.012;2023-11-21T10:06:00;102135.38;;;1.18;100.00
19600;BME280;9947;57.722;12.012;2023-11-21T10:08:29;102141.56;;;1.20;100.00
19600;BME280;9947;57.722;12.012;2023-11-21T10:10:59;102135.25;;;1.26;100.00
19600;BME280;9947;57.722;12.012;2023-11-21T10:13:30;102135.38;;;1.18;100.00
19600;BME280;9947;57.722;12.012;2023-11-21T10:16:00;102127.25;;;1.26;100.00
19600;BME280;9947;57.722;12.012;2023-11-21T10:18:32;102138.88;;;1.21;100.00
19600;BME280;9947;57.722;12.012;2023-11-21T10:21:00;102128.97;;;1.30;100.00
19600;BME280;9947;57.722;12.012;2023-11-21T10:23:30;102126.41;;;1.23;100.00
19600;BME280;9947;57.722;12.012;2023-11-21T10:25:59;102129.88;;;1.29;100.00
19600;BME280;9947;57.722;12.012;2023-11-21T10:28:27;102122.13;;;1.13;100.00
19600;BME280;9947;57.722;12.012;2023-11-21T10:30:57;102126.56;;;1.14;100.00
19600;BME280;9947;57.722;12.012;2023-11-21T10:33:27;102133.53;;;1.21;100.00
19600;BME280;9947;57.722;12.012;2023-11-21T10:35:55;102134.28;;;1.31;100.00
19600;BME280;9947;57.722;12.012;2023-11-21T10:40:47;102125.53;;;1.23;100.00
19600;BME280;9947;57.722;12.012;2023-11-21T10:43:17;102115.66;;;1.31;100.00
19600;BME280;9947;57.722;12.012;2023-11-21T10:45:45;102117.41;;;1.29;100.00
19600;BME280;9947;57.722;12.012;2023-11-21T10:48:13;102117.44;;;1.31;100.00
19600;BME280;9947;57.722;12.012;2023-11-21T10:50:41;102122.66;;;1.37;100.00
19600;BME280;9947;57.722;12.012;2023-11-21T10:53:10;102126.25;;;1.34;100.00
19600;BME280;9947;57.722;12.012;2023-11-21T10:55:39;102132.31;;;1.42;100.00
19600;BME280;9947;57.722;12.012;2023-11-21T10:58:06;102120.47;;;1.60;100.00
19600;BME280;9947;57.722;12.012;2023-11-21T11:00:38;102125.78;;;1.62;100.00
19600;BME280;9947;57.722;12.012;2023-11-21T11:03:07;102118.66;;;1.62;100.00
19600;BME280;9947;57.722;12.012;2023-11-21T11:05:40;102129.91;;;1.78;100.00
19600;BME280;9947;57.722;12.012;2023-11-21T11:08:24;102104.03;;;1.84;100.00
19600;BME280;9947;57.722;12.012;2023-11-21T11:10:53;102094.38;;;1.77;100.00
19600;BME280;9947;57.722;12.012;2023-11-21T11:15:58;102092.75;;;1.69;100.00
19600;BME280;9947;57.722;12.012;2023-11-21T11:18:27;102091.72;;;1.76;100.00
19600;BME280;9947;57.722;12.012;2023-11-21T11:20:58;102090.81;;;1.77;100.00
19600;BME280;9947;57.722;12.012;2023-11-21T11:23:40;102087.97;;;1.88;100.00
19600;BME280;9947;57.722;12.012;2023-11-21T11:26:18;102079.84;;;1.94;100.00
19600;BME280;9947;57.722;12.012;2023-11-21T11:28:59;102082.34;;;2.01;100.00
19600;BME280;9947;57.722;12.012;2023-11-21T11:31:38;102085.66;;;2.14;100.00
19600;BME280;9947;57.722;12.012;2023-11-21T11:34:14;102067.94;;;2.11;100.00
19600;BME280;9947;57.722;12.012;2023-11-21T11:36:51;102070.59;;;2.11;100.00
19600;BME280;9947;57.722;12.012;2023-11-21T11:39:29;102070.41;;;2.21;100.00
19600;BME280;9947;57.722;12.012;2023-11-21T11:42:01;102066.41;;;1.98;100.00
19600;BME280;9947;57.722;12.012;2023-11-21T11:44:50;102066.63;;;1.88;100.00
19600;BME280;9947;57.722;12.012;2023-11-21T11:47:27;102082.59;;;1.89;100.00
19600;BME280;9947;57.722;12.012;2023-11-21T11:50:03;102085.31;;;1.88;100.00
19600;BME280;9947;57.722;12.012;2023-11-21T11:52:38;102080.16;;;1.77;100.00
19600;BME280;9947;57.722;12.012;2023-11-21T11:55:08;102081.97;;;1.75;100.00
19600;BME280;9947;57.722;12.012;2023-11-21T11:57:39;102084.56;;;1.79;100.00
19600;BME280;9947;57.722;12.012;2023-11-21T12:00:15;102086.91;;;1.96;100.00
19600;BME280;9947;57.722;12.012;2023-11-21T12:02:51;102079.97;;;1.88;100.00
19600;BME280;9947;57.722;12.012;2023-11-21T12:07:45;102094.97;;;1.93;100.00
19600;BME280;9947;57.722;12.012;2023-11-21T12:10:14;102095.03;;;1.90;100.00
19600;BME280;9947;57.722;12.012;2023-11-21T12:12:49;102086.81;;;2.01;100.00
19600;BME280;9947;57.722;12.012;2023-11-21T12:17:51;102096.50;;;2.05;100.00
19600;BME280;9947;57.722;12.012;2023-11-21T12:22:45;102088.78;;;1.91;100.00
19600;BME280;9947;57.722;12.012;2023-11-21T12:25:16;102094.94;;;1.95;100.00
19600;BME280;9947;57.722;12.012;2023-11-21T12:27:44;102094.06;;;1.94;100.00
19600;BME280;9947;57.722;12.012;2023-11-21T12:30:13;102094.22;;;1.87;100.00
19600;BME280;9947;57.722;12.012;2023-11-21T12:32:41;102105.78;;;1.85;100.00
19600;BME280;9947;57.722;12.012;2023-11-21T12:35:18;102110.16;;;1.90;100.00
19600;BME280;9947;57.722;12.012;2023-11-21T12:37:47;102110.22;;;1.87;100.00
19600;BME280;9947;57.722;12.012;2023-11-21T12:40:17;102111.25;;;1.78;100.00
19600;BME280;9947;57.722;12.012;2023-11-21T12:42:47;102111.59;;;1.60;100.00
19600;BME280;9947;57.722;12.012;2023-11-21T12:45:22;102119.38;;;1.70;100.00
19600;BME280;9947;57.722;12.012;2023-11-21T12:47:53;102113.50;;;1.51;100.00
19600;BME280;9947;57.722;12.012;2023-11-21T12:52:52;102128.56;;;1.52;100.00
19600;BME280;9947;57.722;12.012;2023-11-21T12:57:45;102121.63;;;1.44;100.00
19600;BME280;9947;57.722;12.012;2023-11-21T13:00:16;102112.81;;;1.40;100.00
19600;BME280;9947;57.722;12.012;2023-11-21T13:02:53;102127.03;;;1.39;100.00
19600;BME280;9947;57.722;12.012;2023-11-21T13:05:29;102127.00;;;1.42;100.00
19600;BME280;9947;57.722;12.012;2023-11-21T13:08:01;102136.00;;;1.35;100.00
19600;BME280;9947;57.722;12.012;2023-11-21T13:10:31;102145.78;;;1.35;100.00
19600;BME280;9947;57.722;12.012;2023-11-21T13:13:02;102144.00;;;1.35;100.00
19600;BME280;9947;57.722;12.012;2023-11-21T13:15:31;102146.75;;;1.28;100.00
19600;BME280;9947;57.722;12.012;2023-11-21T13:18:00;102151.25;;;1.24;100.00
19600;BME280;9947;57.722;12.012;2023-11-21T13:20:27;102150.34;;;1.25;100.00
19600;BME280;9947;57.722;12.012;2023-11-21T13:22:59;102161.81;;;1.32;100.00
19600;BME280;9947;57.722;12.012;2023-11-21T13:25:27;102156.50;;;1.29;100.00
19600;BME280;9947;57.722;12.012;2023-11-21T13:27:54;102156.50;;;1.32;100.00
19600;BME280;9947;57.722;12.012;2023-11-21T13:30:22;102160.84;;;1.36;100.00
19600;BME280;9947;57.722;12.012;2023-11-21T13:32:53;102159.97;;;1.35;100.00
19600;BME280;9947;57.722;12.012;2023-11-21T13:37:49;102172.56;;;1.24;100.00
19600;BME280;9947;57.722;12.012;2023-11-21T13:42:46;102186.81;;;1.21;100.00
19600;BME280;9947;57.722;12.012;2023-11-21T13:45:14;102184.06;;;1.28;100.00
19600;BME280;9947;57.722;12.012;2023-11-21T13:47:43;102186.75;;;1.26;100.00
19600;BME280;9947;57.722;12.012;2023-11-21T13:50:10;102190.13;;;1.39;100.00
19600;BME280;9947;57.722;12.012;2023-11-21T13:52:42;102189.22;;;1.40;100.00
19600;BME280;9947;57.722;12.012;2023-11-21T13:55:12;102183.13;;;1.32;100.00
19600;BME280;9947;57.722;12.012;2023-11-21T13:57:41;102177.81;;;1.30;100.00
19600;BME280;9947;57.722;12.012;2023-11-21T14:00:18;102179.59;;;1.31;100.00
19600;BME280;9947;57.722;12.012;2023-11-21T14:03:05;102182.25;;;1.31;100.00
19600;BME280;9947;57.722;12.012;2023-11-21T14:05:43;102182.16;;;1.37;100.00
19600;BME280;9947;57.722;12.012;2023-11-21T14:08:14;102183.81;;;1.43;100.00